Time;durP1;ratioP1;P1;durP2;ratioP2;P2;SDS_P1;SDS_P2;PMS_P1;PMS_P2;Temp;Humidity;BMP_temperature;BMP_pressure;BME280_temperature;BME280_humidity;BME280_pressure;Samples;Min_cycle;Max_cycle;Signal;HPM_P1;HPM_P2
2022/08/01 00:00:10;;;;;;;;;;;;;;;;;;5015304;28;20027;-26
2022/08/01 00:02:37;;;;;;;;;;;;;;;;;;5017257;28;20004;-27
2022/08/01 00:05:05;;;;;;;;;;;;;;;;;;5018683;28;20313;-25
2022/08/01 00:07:31;;;;;;;;;;;;;;;;;;5018771;28;19914;-26
2022/08/01 00:09:57;;;;;;;;;;;;;;;;;;5018760;28;19914;-25
2022/08/01 00:12:23;;;;;;;;;;;;;;;;;;5018648;28;19920;-27
2022/08/01 00:14:49;;;;;;;;;;;;;;;;;;5018598;28;20309;-25
2022/08/01 00:17:15;;;;;;;;;;;;;;;;;;5018598;28;19955;-27
2022/08/01 00:19:41;;;;;;;;;;;;;;;;;;5017662;28;19913;-25
2022/08/01 00:22:07;;;;;;;;;;;;;;;;;;5018487;28;19921;-29
2022/08/01 00:24:33;;;;;;;;;;;;;;;;;;5018501;28;19916;-25
2022/08/01 00:26:59;;;;;;;;;;;;;;;;;;5018739;28;19914;-24
2022/08/01 00:29:25;;;;;;;;;;;;;;;;;;5018665;28;19940;-26
2022/08/01 00:31:51;;;;;;;;;;;;;;;;;;5018294;28;20004;-30
2022/08/01 00:34:17;;;;;;;;;;;;;;;;;;5018286;28;19913;-25
2022/08/01 00:36:43;;;;;;;;;;;;;;;;;;5018528;28;20052;-28
2022/08/01 00:39:09;;;;;;;;;;;;;;;;;;5018242;28;20011;-28
2022/08/01 00:41:35;;;;;;;;;;;;;;;;;;5018168;28;20248;-28
2022/08/01 00:44:01;;;;;;;;;;;;;;;;;;5018058;28;19920;-25
2022/08/01 00:46:27;;;;;;;;;;;;;;;;;;5017105;28;19914;-29
2022/08/01 00:48:54;;;;;;;;;;;;;;;;;;5018106;28;19910;-26
2022/08/01 00:51:20;;;;;;;;;;;;;;;;;;5017947;28;20349;-24
2022/08/01 00:53:46;;;;;;;;;;;;;;;;;;5017930;28;19910;-26
2022/08/01 00:56:12;;;;;;;;;;;;;;;;;;5018123;28;19917;-29
2022/08/01 00:58:38;;;;;;;;;;;;;;;;;;5017874;28;20342;-26
2022/08/01 01:01:04;;;;;;;;;;;;;;;;;;5017838;28;19917;-24
2022/08/01 01:03:31;;;;;;;;;;;;;;;;;;5017538;28;20379;-26
2022/08/01 01:05:57;;;;;;;;;;;;;;;;;;5017768;28;19921;-25
2022/08/01 01:08:23;;;;;;;;;;;;;;;;;;5017627;28;19925;-29
2022/08/01 01:10:49;;;;;;;;;;;;;;;;;;5017660;28;19909;-25
2022/08/01 01:13:15;;;;;;;;;;;;;;;;;;5016300;28;20012;-27
2022/08/01 01:15:41;;;;;;;;;;;;;;;;;;5017500;28;20000;-24
2022/08/01 01:18:07;;;;;;;;;;;;;;;;;;5017481;28;19913;-25
2022/08/01 01:20:33;;;;;;;;;;;;;;;;;;5017490;28;20043;-27
2022/08/01 01:22:59;;;;;;;;;;;;;;;;;;5017328;28;19914;-25
2022/08/01 01:25:25;;;;;;;;;;;;;;;;;;5017627;28;19917;-27
2022/08/01 01:27:51;;;;;;;;;;;;;;;;;;5017339;28;19983;-27
2022/08/01 01:30:17;;;;;;;;;;;;;;;;;;5017602;28;19920;-26
2022/08/01 01:32:43;;;;;;;;;;;;;;;;;;5017168;28;20340;-25
2022/08/01 01:35:09;;;;;;;;;;;;;;;;;;5017137;28;19917;-24
2022/08/01 01:37:35;;;;;;;;;;;;;;;;;;5017417;28;20285;-25
2022/08/01 01:40:01;;;;;;;;;;;;;;;;;;5017087;28;19916;-24
2022/08/01 01:42:28;;;;;;;;;;;;;;;;;;5016965;28;19914;-26
2022/08/01 01:44:54;;;;;;;;;;;;;;;;;;5016978;28;19990;-24
2022/08/01 01:47:20;;;;;;;;;;;;;;;;;;5017227;28;19914;-27
2022/08/01 01:49:46;;;;;;;;;;;;;;;;;;5016894;28;19910;-25
2022/08/01 01:52:12;;;;;;;;;;;;;;;;;;5016820;28;19921;-25
2022/08/01 01:54:38;;;;;;;;;;;;;;;;;;5016762;28;20401;-25
2022/08/01 01:57:04;;;;;;;;;;;;;;;;;;5016783;28;20376;-24
2022/08/01 01:59:30;;;;;;;;;;;;;;;;;;5016715;28;20035;-24
2022/08/01 02:01:56;;;;;;;;;;;;;;;;;;5016571;28;19910;-26
2022/08/01 02:04:22;;;;;;;;;;;;;;;;;;5016442;28;19938;-27
2022/08/01 02:06:48;;;;;;;;;;;;;;;;;;5016612;28;19914;-25
2022/08/01 02:09:14;;;;;;;;;;;;;;;;;;5016532;28;19921;-27
2022/08/01 02:11:40;;;;;;;;;;;;;;;;;;5016490;28;19916;-26
2022/08/01 02:14:08;;;;;;;;;;;;;;;;;;5016426;28;19913;-27
2022/08/01 02:16:33;;;;;;;;;;;;;;;;;;5016407;28;19990;-25
2022/08/01 02:18:59;;;;;;;;;;;;;;;;;;5016377;28;19910;-27
2022/08/01 02:21:25;;;;;;;;;;;;;;;;;;5016370;28;19914;-28
2022/08/01 02:23:51;;;;;;;;;;;;;;;;;;5016158;28;19913;-29
2022/08/01 02:26:17;;;;;;;;;;;;;;;;;;5015984;28;19920;-30
2022/08/01 02:28:43;;;;;;;;;;;;;;;;;;5015266;28;19944;-26
2022/08/01 02:31:09;;;;;;;;;;;;;;;;;;5016477;28;20343;-24
2022/08/01 02:33:36;;;;;;;;;;;;;;;;;;5016043;28;19917;-26
2022/08/01 02:36:02;;;;;;;;;;;;;;;;;;5016041;28;19913;-28
2022/08/01 02:38:28;;;;;;;;;;;;;;;;;;5015999;28;19947;-25
2022/08/01 02:40:54;;;;;;;;;;;;;;;;;;5016046;28;20249;-25
2022/08/01 02:43:20;;;;;;;;;;;;;;;;;;5016131;28;20004;-29
2022/08/01 02:45:47;;;;;;;;;;;;;;;;;;5015961;28;20321;-25
2022/08/01 02:48:13;;;;;;;;;;;;;;;;;;5015788;28;19913;-25
2022/08/01 02:50:39;;;;;;;;;;;;;;;;;;5016091;28;19921;-26
2022/08/01 02:53:05;;;;;;;;;;;;;;;;;;5015742;28;19923;-27
2022/08/01 02:55:31;;;;;;;;;;;;;;;;;;5015651;28;19924;-26
2022/08/01 02:57:57;;;;;;;;;;;;;;;;;;5015964;28;19913;-26
2022/08/01 03:00:23;;;;;;;;;;;;;;;;;;5015686;28;20245;-27
2022/08/01 03:02:50;;;;;;;;;;;;;;;;;;5015500;28;19923;-25
2022/08/01 03:05:16;;;;;;;;;;;;;;;;;;5015916;28;19918;-28
2022/08/01 03:07:43;;;;;;;;;;;;;;;;;;5015521;28;19924;-27
2022/08/01 03:10:09;;;;;;;;;;;;;;;;;;5015562;28;20315;-28
2022/08/01 03:12:35;;;;;;;;;;;;;;;;;;5015651;28;20296;-24
2022/08/01 03:15:01;;;;;;;;;;;;;;;;;;5015403;28;19932;-31
2022/08/01 03:17:27;;;;;;;;;;;;;;;;;;5015465;28;19917;-27
2022/08/01 03:19:52;;;;;;;;;;;;;;;;;;5015433;28;19961;-24
2022/08/01 03:22:18;;;;;;;;;;;;;;;;;;5015574;28;20260;-25
2022/08/01 03:24:44;;;;;;;;;;;;;;;;;;5015376;28;19917;-25
2022/08/01 03:27:10;;;;;;;;;;;;;;;;;;5015387;28;19910;-26
2022/08/01 03:29:36;;;;;;;;;;;;;;;;;;5015335;28;19921;-26
2022/08/01 03:32:02;;;;;;;;;;;;;;;;;;5015163;28;19909;-26
2022/08/01 03:34:28;;;;;;;;;;;;;;;;;;5015237;28;19925;-28
2022/08/01 03:36:54;;;;;;;;;;;;;;;;;;5016811;28;19997;-26
2022/08/01 03:39:20;;;;;;;;;;;;;;;;;;5019336;28;20017;-26
2022/08/01 03:41:46;;;;;;;;;;;;;;;;;;5018331;28;19913;-29
2022/08/01 03:44:12;;;;;;;;;;;;;;;;;;5019461;28;19960;-27
2022/08/01 03:46:38;;;;;;;;;;;;;;;;;;5019165;28;19925;-26
2022/08/01 03:49:04;;;;;;;;;;;;;;;;;;5019419;28;19914;-29
2022/08/01 03:51:30;;;;;;;;;;;;;;;;;;5019325;28;20264;-25
2022/08/01 03:53:56;;;;;;;;;;;;;;;;;;5019086;28;19917;-25
2022/08/01 03:56:22;;;;;;;;;;;;;;;;;;5019207;28;20317;-26
2022/08/01 03:58:48;;;;;;;;;;;;;;;;;;5019161;28;20018;-25
2022/08/01 04:01:14;;;;;;;;;;;;;;;;;;5018850;28;19987;-27
2022/08/01 04:03:40;;;;;;;;;;;;;;;;;;5018644;28;19918;-26
2022/08/01 04:06:08;;;;;;;;;;;;;;;;;;5018735;28;19939;-26
2022/08/01 04:08:34;;;;;;;;;;;;;;;;;;5018671;28;20359;-26
2022/08/01 04:11:00;;;;;;;;;;;;;;;;;;5018644;28;19925;-24
2022/08/01 04:13:26;;;;;;;;;;;;;;;;;;5018358;28;20021;-25
2022/08/01 04:15:52;;;;;;;;;;;;;;;;;;5018512;28;19924;-25
2022/08/01 04:18:18;;;;;;;;;;;;;;;;;;5018518;28;20296;-27
2022/08/01 04:20:44;;;;;;;;;;;;;;;;;;5018693;28;19914;-25
2022/08/01 04:23:10;;;;;;;;;;;;;;;;;;5018329;28;19944;-26
2022/08/01 04:25:36;;;;;;;;;;;;;;;;;;5018316;28;19913;-29
2022/08/01 04:28:07;;;;;;;;;;;;;;;;;;5017408;28;19910;-26
2022/08/01 04:30:33;;;;;;;;;;;;;;;;;;5017375;28;19971;-30
2022/08/01 04:32:59;;;;;;;;;;;;;;;;;;5018613;28;19924;-28
2022/08/01 04:35:25;;;;;;;;;;;;;;;;;;5018249;28;20256;-29
2022/08/01 04:37:51;;;;;;;;;;;;;;;;;;5018271;28;19913;-27
2022/08/01 04:40:17;;;;;;;;;;;;;;;;;;5018236;28;19917;-27
2022/08/01 04:42:43;;;;;;;;;;;;;;;;;;5018060;28;19914;-25
2022/08/01 04:45:09;;;;;;;;;;;;;;;;;;5018340;28;19910;-24
2022/08/01 04:47:35;;;;;;;;;;;;;;;;;;5018050;28;19921;-25
2022/08/01 04:50:01;;;;;;;;;;;;;;;;;;5018221;28;20295;-28
2022/08/01 04:52:27;;;;;;;;;;;;;;;;;;5017865;28;19959;-27
2022/08/01 04:54:53;;;;;;;;;;;;;;;;;;5017947;28;19929;-26
2022/08/01 04:57:19;;;;;;;;;;;;;;;;;;5017712;28;20316;-25
2022/08/01 04:59:46;;;;;;;;;;;;;;;;;;5017798;28;20261;-28
2022/08/01 05:02:12;;;;;;;;;;;;;;;;;;5017700;28;19913;-26
2022/08/01 05:04:38;;;;;;;;;;;;;;;;;;5016457;28;20008;-27
2022/08/01 05:07:04;;;;;;;;;;;;;;;;;;5017917;28;20308;-26
2022/08/01 05:09:30;;;;;;;;;;;;;;;;;;5017623;28;20260;-25
2022/08/01 05:11:58;;;;;;;;;;;;;;;;;;5017549;28;19914;-29
2022/08/01 05:14:24;;;;;;;;;;;;;;;;;;5017547;28;19909;-27
2022/08/01 05:16:50;;;;;;;;;;;;;;;;;;5017321;28;19924;-26
2022/08/01 05:19:16;;;;;;;;;;;;;;;;;;5017701;28;20288;-25
2022/08/01 05:21:42;;;;;;;;;;;;;;;;;;5017324;28;19916;-26
2022/08/01 05:24:08;;;;;;;;;;;;;;;;;;5017154;28;20415;-29
2022/08/01 05:26:34;;;;;;;;;;;;;;;;;;5017267;28;19924;-25
2022/08/01 05:29:00;;;;;;;;;;;;;;;;;;5017255;28;19914;-27
2022/08/01 05:31:26;;;;;;;;;;;;;;;;;;5017591;28;19916;-28
2022/08/01 05:33:52;;;;;;;;;;;;;;;;;;5016175;28;19921;-29
2022/08/01 05:36:18;;;;;;;;;;;;;;;;;;5016122;28;19924;-26
2022/08/01 05:38:44;;;;;;;;;;;;;;;;;;5017327;28;19913;-27
2022/08/01 05:41:10;;;;;;;;;;;;;;;;;;5017062;28;19909;-27
2022/08/01 05:43:35;;;;;;;;;;;;;;;;;;5016991;28;19913;-26
2022/08/01 05:46:01;;;;;;;;;;;;;;;;;;5017186;28;19909;-25
2022/08/01 05:48:27;;;;;;;;;;;;;;;;;;5016845;28;20075;-25
2022/08/01 05:50:53;;;;;;;;;;;;;;;;;;5015773;28;19945;-25
2022/08/01 05:53:19;;;;;;;;;;;;;;;;;;5016618;28;19913;-25
2022/08/01 05:55:45;;;;;;;;;;;;;;;;;;5016591;28;20272;-26
2022/08/01 05:58:11;;;;;;;;;;;;;;;;;;5016602;28;19918;-24
2022/08/01 06:03:20;;;;;;;;;;;;;;;;;;5380005;22;19971;-32
2022/08/01 06:05:46;;;;;;;;;;;;;;;;;;5015719;28;19923;-31
2022/08/01 06:08:12;;;;;;;;;;;;;;;;;;5015618;28;19909;-31
2022/08/01 06:10:38;;;;;;;;;;;;;;;;;;5017022;28;20301;-32
2022/08/01 06:13:04;;;;;;;;;;;;;;;;;;5016398;28;19913;-31
2022/08/01 06:15:30;;;;;;;;;;;;;;;;;;5015459;28;19922;-31
2022/08/01 06:17:56;;;;;;;;;;;;;;;;;;5016483;28;20426;-31
2022/08/01 06:20:22;;;;;;;;;;;;;;;;;;5016634;28;19925;-32
2022/08/01 06:22:48;;;;;;;;;;;;;;;;;;5016337;28;19916;-31
2022/08/01 06:25:14;;;;;;;;;;;;;;;;;;5016255;28;19913;-31
2022/08/01 06:27:40;;;;;;;;;;;;;;;;;;5016748;28;19920;-31
2022/08/01 06:30:07;;;;;;;;;;;;;;;;;;5016208;28;20004;-31
2022/08/01 06:32:33;;;;;;;;;;;;;;;;;;5015950;28;20352;-31
2022/08/01 06:34:59;;;;;;;;;;;;;;;;;;5015947;28;19913;-31
2022/08/01 06:37:25;;;;;;;;;;;;;;;;;;5015984;28;20359;-31
2022/08/01 06:39:51;;;;;;;;;;;;;;;;;;5016474;28;19921;-32
2022/08/01 06:42:17;;;;;;;;;;;;;;;;;;5014880;28;19999;-30
2022/08/01 06:44:43;;;;;;;;;;;;;;;;;;5016100;28;19960;-31
2022/08/01 06:47:09;;;;;;;;;;;;;;;;;;5016119;28;19937;-31
2022/08/01 06:49:35;;;;;;;;;;;;;;;;;;5016167;28;20390;-31
2022/08/01 06:52:02;;;;;;;;;;;;;;;;;;5015715;28;19913;-32
2022/08/01 06:54:28;;;;;;;;;;;;;;;;;;5015674;28;19913;-32
2022/08/01 06:56:54;;;;;;;;;;;;;;;;;;5015744;28;19909;-32
2022/08/01 06:59:20;;;;;;;;;;;;;;;;;;5015957;28;19917;-32
2022/08/01 07:01:46;;;;;;;;;;;;;;;;;;5015667;28;19909;-33
2022/08/01 07:04:12;;;;;;;;;;;;;;;;;;5015527;28;19922;-31
2022/08/01 07:06:38;;;;;;;;;;;;;;;;;;5015842;28;19914;-30
2022/08/01 07:09:04;;;;;;;;;;;;;;;;;;5015804;28;19909;-31
2022/08/01 07:11:30;;;;;;;;;;;;;;;;;;5015799;28;19964;-31
2022/08/01 07:13:56;;;;;;;;;;;;;;;;;;5015440;28;20021;-31
2022/08/01 07:16:23;;;;;;;;;;;;;;;;;;5015736;28;20331;-29
2022/08/01 07:18:49;;;;;;;;;;;;;;;;;;5015381;28;19913;-31
2022/08/01 07:21:15;;;;;;;;;;;;;;;;;;5015397;28;19913;-32
2022/08/01 07:23:41;;;;;;;;;;;;;;;;;;5015618;28;20248;-31
2022/08/01 07:26:07;;;;;;;;;;;;;;;;;;5015746;28;19926;-32
2022/08/01 07:28:33;;;;;;;;;;;;;;;;;;5015948;28;19917;-31
2022/08/01 07:30:59;;;;;;;;;;;;;;;;;;5015310;28;19914;-31
2022/08/01 07:33:25;;;;;;;;;;;;;;;;;;5014120;28;19932;-31
2022/08/01 07:35:51;;;;;;;;;;;;;;;;;;5014298;28;19920;-32
2022/08/01 07:38:17;;;;;;;;;;;;;;;;;;5015594;28;20276;-30
2022/08/01 07:40:43;;;;;;;;;;;;;;;;;;5015769;28;19918;-31
2022/08/01 07:43:09;;;;;;;;;;;;;;;;;;5015099;28;19920;-31
2022/08/01 07:45:34;;;;;;;;;;;;;;;;;;5015123;28;20310;-31
2022/08/01 07:48:00;;;;;;;;;;;;;;;;;;5015071;28;19913;-32
2022/08/01 07:50:26;;;;;;;;;;;;;;;;;;5014130;28;19921;-31
2022/08/01 07:52:52;;;;;;;;;;;;;;;;;;5014998;28;19983;-32
2022/08/01 07:55:18;;;;;;;;;;;;;;;;;;5013925;28;19928;-32
2022/08/01 07:57:44;;;;;;;;;;;;;;;;;;5015283;28;19967;-31
2022/08/01 08:00:10;;;;;;;;;;;;;;;;;;5015039;28;19996;-31
2022/08/01 08:02:36;;;;;;;;;;;;;;;;;;5014703;28;19918;-33
2022/08/01 08:05:03;;;;;;;;;;;;;;;;;;5014942;28;19925;-32
2022/08/01 08:07:29;;;;;;;;;;;;;;;;;;5014096;28;19914;-32
2022/08/01 08:09:55;;;;;;;;;;;;;;;;;;5015436;28;19913;-31
2022/08/01 08:12:21;;;;;;;;;;;;;;;;;;5013887;28;19914;-31
2022/08/01 08:14:47;;;;;;;;;;;;;;;;;;5014811;28;19917;-30
2022/08/01 08:17:13;;;;;;;;;;;;;;;;;;5014829;28;19914;-32
2022/08/01 08:19:39;;;;;;;;;;;;;;;;;;5014816;28;20024;-31
2022/08/01 08:22:05;;;;;;;;;;;;;;;;;;5013740;28;19914;-31
2022/08/01 08:24:31;;;;;;;;;;;;;;;;;;5018321;28;20012;-31
2022/08/01 08:26:57;;;;;;;;;;;;;;;;;;5018705;28;19935;-30
2022/08/01 08:29:24;;;;;;;;;;;;;;;;;;5018934;28;20008;-31
2022/08/01 08:31:50;;;;;;;;;;;;;;;;;;5018289;28;19925;-32
2022/08/01 08:34:16;;;;;;;;;;;;;;;;;;5018556;28;19925;-31
2022/08/01 08:36:42;;;;;;;;;;;;;;;;;;5018132;28;19914;-32
2022/08/01 08:39:08;;;;;;;;;;;;;;;;;;5018172;28;19925;-32
2022/08/01 08:41:34;;;;;;;;;;;;;;;;;;5018133;28;19914;-30
2022/08/01 08:44:00;;;;;;;;;;;;;;;;;;5018064;28;19913;-31
2022/08/01 08:46:27;;;;;;;;;;;;;;;;;;5018053;28;19975;-31
2022/08/01 08:48:53;;;;;;;;;;;;;;;;;;5018040;28;19944;-32
2022/08/01 08:51:19;;;;;;;;;;;;;;;;;;5018347;28;20336;-31
2022/08/01 08:53:45;;;;;;;;;;;;;;;;;;5017902;28;19914;-31
2022/08/01 08:56:11;;;;;;;;;;;;;;;;;;5018038;28;19924;-32
2022/08/01 08:58:37;;;;;;;;;;;;;;;;;;5018375;28;19914;-31
2022/08/01 09:01:03;;;;;;;;;;;;;;;;;;5017902;28;19921;-32
2022/08/01 09:03:29;;;;;;;;;;;;;;;;;;5017538;28;20028;-31
2022/08/01 09:05:55;;;;;;;;;;;;;;;;;;5018389;28;20342;-31
2022/08/01 09:08:21;;;;;;;;;;;;;;;;;;5017705;28;19996;-32
2022/08/01 09:10:47;;;;;;;;;;;;;;;;;;5017780;28;19921;-31
2022/08/01 09:13:13;;;;;;;;;;;;;;;;;;5017813;28;19917;-32
2022/08/01 09:15:39;;;;;;;;;;;;;;;;;;5017892;28;19913;-32
2022/08/01 09:18:06;;;;;;;;;;;;;;;;;;5016645;28;20004;-32
2022/08/01 09:20:34;;;;;;;;;;;;;;;;;;5017778;28;20304;-31
2022/08/01 09:23:00;;;;;;;;;;;;;;;;;;5017417;28;19920;-30
2022/08/01 09:25:32;;;;;;;;;;;;;;;;;;5017372;28;19913;-31
2022/08/01 09:27:58;;;;;;;;;;;;;;;;;;5017532;28;19925;-31
2022/08/01 09:30:24;;;;;;;;;;;;;;;;;;5017183;28;19967;-31
2022/08/01 09:32:50;;;;;;;;;;;;;;;;;;5017159;28;19921;-32
2022/08/01 09:35:16;;;;;;;;;;;;;;;;;;5016061;28;20303;-32
2022/08/01 09:37:42;;;;;;;;;;;;;;;;;;5017208;28;19955;-31
2022/08/01 09:40:08;;;;;;;;;;;;;;;;;;5016150;28;19914;-31
2022/08/01 09:42:34;;;;;;;;;;;;;;;;;;5016917;28;19971;-32
2022/08/01 09:45:01;;;;;;;;;;;;;;;;;;5016888;28;19914;-37
2022/08/01 09:47:27;;;;;;;;;;;;;;;;;;5017441;28;19913;-31
2022/08/01 09:49:53;;;;;;;;;;;;;;;;;;5016930;28;20351;-32
2022/08/01 09:52:19;;;;;;;;;;;;;;;;;;5015845;28;20024;-32
2022/08/01 09:54:45;;;;;;;;;;;;;;;;;;5016779;28;19914;-32
2022/08/01 09:57:11;;;;;;;;;;;;;;;;;;5017097;28;19913;-32
2022/08/01 09:59:38;;;;;;;;;;;;;;;;;;5016629;28;19968;-31
2022/08/01 10:02:06;;;;;;;;;;;;;;;;;;5015971;28;20190;-32
2022/08/01 10:04:32;;;;;;;;;;;;;;;;;;5017126;28;19952;-32
2022/08/01 10:06:58;;;;;;;;;;;;;;;;;;5016628;28;19918;-31
2022/08/01 10:09:24;;;;;;;;;;;;;;;;;;5016851;28;19984;-32
2022/08/01 10:11:50;;;;;;;;;;;;;;;;;;5016465;28;19940;-31
2022/08/01 10:14:19;;;;;;;;;;;;;;;;;;5016974;28;19967;-31
2022/08/01 10:16:45;;;;;;;;;;;;;;;;;;5016608;28;19921;-31
2022/08/01 10:19:11;;;;;;;;;;;;;;;;;;5016458;28;20253;-32
2022/08/01 10:21:37;;;;;;;;;;;;;;;;;;5017176;28;19924;-30
2022/08/01 10:24:04;;;;;;;;;;;;;;;;;;5016438;28;19917;-32
2022/08/01 10:26:30;;;;;;;;;;;;;;;;;;5016449;28;19918;-31
2022/08/01 10:28:56;;;;;;;;;;;;;;;;;;5015131;28;19917;-30
2022/08/01 10:31:22;;;;;;;;;;;;;;;;;;5015266;28;19920;-31
2022/08/01 10:33:48;;;;;;;;;;;;;;;;;;5015076;28;19909;-31
2022/08/01 10:36:14;;;;;;;;;;;;;;;;;;5016054;28;19921;-31
2022/08/01 10:38:40;;;;;;;;;;;;;;;;;;5016152;28;20233;-31
2022/08/01 10:41:06;;;;;;;;;;;;;;;;;;5015015;28;19914;-30
2022/08/01 10:43:32;;;;;;;;;;;;;;;;;;5016202;28;19910;-30
2022/08/01 10:45:58;;;;;;;;;;;;;;;;;;5015517;28;19958;-30
2022/08/01 10:48:24;;;;;;;;;;;;;;;;;;5016105;28;19972;-31
2022/08/01 10:50:50;;;;;;;;;;;;;;;;;;5015863;28;19944;-30
2022/08/01 10:53:17;;;;;;;;;;;;;;;;;;5015763;28;19914;-31
2022/08/01 10:55:43;;;;;;;;;;;;;;;;;;5014704;28;20005;-30
2022/08/01 10:58:09;;;;;;;;;;;;;;;;;;5015759;28;20352;-30
2022/08/01 11:00:35;;;;;;;;;;;;;;;;;;5015622;28;19924;-31
2022/08/01 11:03:01;;;;;;;;;;;;;;;;;;5015637;28;20000;-31
2022/08/01 11:05:27;;;;;;;;;;;;;;;;;;5015911;28;19913;-31
2022/08/01 11:07:53;;;;;;;;;;;;;;;;;;5015572;28;19968;-31
2022/08/01 11:10:19;;;;;;;;;;;;;;;;;;5015572;28;19910;-30
2022/08/01 11:12:45;;;;;;;;;;;;;;;;;;5014555;28;20009;-32
2022/08/01 11:15:11;;;;;;;;;;;;;;;;;;5015977;28;19921;-31
2022/08/01 11:17:37;;;;;;;;;;;;;;;;;;5015448;28;20403;-31
2022/08/01 11:20:03;;;;;;;;;;;;;;;;;;5015534;28;19918;-31
2022/08/01 11:22:29;;;;;;;;;;;;;;;;;;5015252;28;19909;-31
2022/08/01 11:24:56;;;;;;;;;;;;;;;;;;5015263;28;19913;-31
2022/08/01 11:27:22;;;;;;;;;;;;;;;;;;5015161;28;19909;-30
2022/08/01 11:29:48;;;;;;;;;;;;;;;;;;5014296;28;19979;-29
2022/08/01 11:32:14;;;;;;;;;;;;;;;;;;5015629;28;19921;-30
2022/08/01 11:34:40;;;;;;;;;;;;;;;;;;5014216;28;20352;-31
2022/08/01 11:37:06;;;;;;;;;;;;;;;;;;5015065;28;20007;-31
2022/08/01 11:39:32;;;;;;;;;;;;;;;;;;5015411;28;19913;-30
2022/08/01 11:41:58;;;;;;;;;;;;;;;;;;5015152;28;19920;-31
2022/08/01 11:44:27;;;;;;;;;;;;;;;;;;5015239;28;19957;-30
2022/08/01 11:46:58;;;;;;;;;;;;;;;;;;5015134;28;19928;-31
2022/08/01 11:49:24;;;;;;;;;;;;;;;;;;5015332;28;19920;-31
2022/08/01 11:51:50;;;;;;;;;;;;;;;;;;5015267;28;19909;-31
2022/08/01 11:54:16;;;;;;;;;;;;;;;;;;5015085;28;20267;-31
2022/08/01 11:56:42;;;;;;;;;;;;;;;;;;5014990;28;20093;-31
2022/08/01 11:59:08;;;;;;;;;;;;;;;;;;5019135;28;19910;-32
2022/08/01 12:01:34;;;;;;;;;;;;;;;;;;5019150;28;19915;-30
2022/08/01 12:04:00;;;;;;;;;;;;;;;;;;5017602;28;19932;-31
2022/08/01 12:06:27;;;;;;;;;;;;;;;;;;5017574;28;20007;-31
2022/08/01 12:08:52;;;;;;;;;;;;;;;;;;5018329;28;19924;-30
2022/08/01 12:11:18;;;;;;;;;;;;;;;;;;5017757;28;19914;-31
2022/08/01 12:13:46;;;;;;;;;;;;;;;;;;5017408;28;19909;-32
2022/08/01 12:16:12;;;;;;;;;;;;;;;;;;5017605;28;19933;-31
2022/08/01 12:18:38;;;;;;;;;;;;;;;;;;5018003;28;19936;-32
2022/08/01 12:21:04;;;;;;;;;;;;;;;;;;5016336;28;19914;-30
2022/08/01 12:23:30;;;;;;;;;;;;;;;;;;5016349;28;19924;-32
2022/08/01 12:25:56;;;;;;;;;;;;;;;;;;5017270;28;20350;-32
2022/08/01 12:28:22;;;;;;;;;;;;;;;;;;5017204;28;19909;-31
2022/08/01 12:30:48;;;;;;;;;;;;;;;;;;5017277;28;20347;-31
2022/08/01 12:33:14;;;;;;;;;;;;;;;;;;5017032;28;19917;-33
2022/08/01 12:35:41;;;;;;;;;;;;;;;;;;5016114;28;19913;-31
2022/08/01 12:38:07;;;;;;;;;;;;;;;;;;5017127;28;19913;-32
2022/08/01 12:40:33;;;;;;;;;;;;;;;;;;5016103;28;20000;-32
2022/08/01 12:42:59;;;;;;;;;;;;;;;;;;5016036;28;20018;-31
2022/08/01 12:45:25;;;;;;;;;;;;;;;;;;5017226;28;20229;-32
2022/08/01 12:47:51;;;;;;;;;;;;;;;;;;5016726;28;19920;-32
2022/08/01 12:50:17;;;;;;;;;;;;;;;;;;5017201;28;19925;-31
2022/08/01 12:52:43;;;;;;;;;;;;;;;;;;5016577;28;19917;-31
2022/08/01 12:55:09;;;;;;;;;;;;;;;;;;5016430;28;19964;-32
2022/08/01 12:57:35;;;;;;;;;;;;;;;;;;5017086;28;19968;-32
2022/08/01 13:00:01;;;;;;;;;;;;;;;;;;5015377;28;20004;-31
2022/08/01 13:02:27;;;;;;;;;;;;;;;;;;4945632;28;2021227;-31
2022/08/01 13:04:53;;;;;;;;;;;;;;;;;;5017829;28;19964;-31
2022/08/01 13:07:19;;;;;;;;;;;;;;;;;;5017586;28;19957;-32
2022/08/01 13:09:45;;;;;;;;;;;;;;;;;;5016461;28;20315;-31
2022/08/01 13:12:11;;;;;;;;;;;;;;;;;;5017762;28;20008;-32
2022/08/01 13:14:37;;;;;;;;;;;;;;;;;;5016435;28;19968;-32
2022/08/01 13:17:03;;;;;;;;;;;;;;;;;;5017988;28;19918;-32
2022/08/01 13:19:29;;;;;;;;;;;;;;;;;;5017906;28;20028;-33
2022/08/01 13:21:55;;;;;;;;;;;;;;;;;;5017252;28;19971;-32
2022/08/01 13:24:21;;;;;;;;;;;;;;;;;;5016328;28;19913;-32
2022/08/01 13:26:47;;;;;;;;;;;;;;;;;;5017367;28;20226;-33
2022/08/01 13:29:13;;;;;;;;;;;;;;;;;;5017566;28;19996;-32
2022/08/01 13:31:39;;;;;;;;;;;;;;;;;;5017161;28;19910;-32
2022/08/01 13:34:05;;;;;;;;;;;;;;;;;;5015963;28;19924;-32
2022/08/01 13:36:31;;;;;;;;;;;;;;;;;;5016100;28;19987;-32
2022/08/01 13:41:42;;;;;;;;;;;;;;;;;;5017124;28;19971;-32
2022/08/01 13:44:08;;;;;;;;;;;;;;;;;;5017256;28;20404;-31
2022/08/01 13:46:34;;;;;;;;;;;;;;;;;;5016873;28;19920;-32
2022/08/01 13:49:00;;;;;;;;;;;;;;;;;;5015855;28;19925;-32
2022/08/01 13:51:26;;;;;;;;;;;;;;;;;;5017405;28;19914;-31
2022/08/01 13:53:52;;;;;;;;;;;;;;;;;;5016659;28;20271;-31
2022/08/01 13:56:19;;;;;;;;;;;;;;;;;;5017176;28;19937;-32
2022/08/01 13:58:45;;;;;;;;;;;;;;;;;;5016730;28;19909;-32
2022/08/01 14:01:11;;;;;;;;;;;;;;;;;;5016899;28;20233;-31
2022/08/01 14:03:37;;;;;;;;;;;;;;;;;;5016339;28;19949;-31
2022/08/01 14:06:03;;;;;;;;;;;;;;;;;;5017356;28;19941;-31
2022/08/01 14:08:29;;;;;;;;;;;;;;;;;;5016828;28;20355;-31
2022/08/01 14:10:58;;;;;;;;;;;;;;;;;;5015411;28;19914;-31
2022/08/01 14:13:24;;;;;;;;;;;;;;;;;;5015342;28;19909;-31
2022/08/01 14:15:50;;;;;;;;;;;;;;;;;;5016843;28;19972;-31
2022/08/01 14:18:16;;;;;;;;;;;;;;;;;;5016371;28;19914;-31
2022/08/01 14:20:42;;;;;;;;;;;;;;;;;;5014815;28;20252;-30
2022/08/01 14:23:08;;;;;;;;;;;;;;;;;;5016244;28;19913;-30
2022/08/01 14:25:34;;;;;;;;;;;;;;;;;;5016187;28;19933;-30
2022/08/01 14:28:00;;;;;;;;;;;;;;;;;;5015080;28;19981;-31
2022/08/01 14:30:26;;;;;;;;;;;;;;;;;;5015950;28;19909;-29
2022/08/01 14:32:52;;;;;;;;;;;;;;;;;;5015987;28;20018;-31
2022/08/01 14:35:18;;;;;;;;;;;;;;;;;;5016352;28;20009;-30
2022/08/01 14:37:44;;;;;;;;;;;;;;;;;;5015998;28;20317;-32
2022/08/01 14:40:10;;;;;;;;;;;;;;;;;;5015811;28;19913;-32
2022/08/01 14:42:36;;;;;;;;;;;;;;;;;;5015775;28;19992;-31
2022/08/01 14:45:02;;;;;;;;;;;;;;;;;;5015817;28;19956;-32
2022/08/01 14:47:28;;;;;;;;;;;;;;;;;;5015909;28;20378;-31
2022/08/01 14:49:54;;;;;;;;;;;;;;;;;;5015792;28;19913;-32
2022/08/01 14:52:20;;;;;;;;;;;;;;;;;;5016158;28;19914;-32
2022/08/01 14:54:46;;;;;;;;;;;;;;;;;;5015575;28;20356;-31
2022/08/01 14:57:12;;;;;;;;;;;;;;;;;;5014716;28;20241;-30
2022/08/01 14:59:38;;;;;;;;;;;;;;;;;;5015889;28;19913;-30
2022/08/01 15:02:04;;;;;;;;;;;;;;;;;;5015785;28;19909;-30
2022/08/01 15:04:30;;;;;;;;;;;;;;;;;;5015573;28;19925;-31
2022/08/01 15:06:56;;;;;;;;;;;;;;;;;;5015493;28;19920;-30
2022/08/01 15:09:23;;;;;;;;;;;;;;;;;;5015557;28;20268;-30
2022/08/01 15:11:49;;;;;;;;;;;;;;;;;;5015376;28;19913;-31
2022/08/01 15:16:59;;;;;;;;;;;;;;;;;;5015334;28;19936;-31
2022/08/01 15:19:26;;;;;;;;;;;;;;;;;;5015574;28;19909;-31
2022/08/01 15:21:52;;;;;;;;;;;;;;;;;;5015220;28;19968;-31
2022/08/01 15:24:18;;;;;;;;;;;;;;;;;;5014314;28;19909;-32
2022/08/01 15:26:44;;;;;;;;;;;;;;;;;;5014287;28;19914;-31
2022/08/01 15:29:10;;;;;;;;;;;;;;;;;;5015231;28;20263;-31
2022/08/01 15:31:36;;;;;;;;;;;;;;;;;;5014796;28;19913;-32
2022/08/01 15:34:02;;;;;;;;;;;;;;;;;;5014909;28;19909;-32
2022/08/01 15:36:28;;;;;;;;;;;;;;;;;;5014099;28;19944;-32
2022/08/01 15:38:55;;;;;;;;;;;;;;;;;;5015222;28;19910;-32
2022/08/01 15:41:21;;;;;;;;;;;;;;;;;;5014253;28;19914;-32
2022/08/01 15:43:47;;;;;;;;;;;;;;;;;;5015090;28;20253;-32
2022/08/01 15:46:13;;;;;;;;;;;;;;;;;;5015228;28;20067;-31
2022/08/01 15:48:39;;;;;;;;;;;;;;;;;;5015154;28;19952;-31
2022/08/01 15:51:05;;;;;;;;;;;;;;;;;;5015210;28;20332;-32
2022/08/01 15:53:31;;;;;;;;;;;;;;;;;;5015000;28;20007;-32
2022/08/01 15:55:57;;;;;;;;;;;;;;;;;;5015024;28;19960;-31
2022/08/01 15:58:23;;;;;;;;;;;;;;;;;;5015582;28;20008;-32
2022/08/01 16:00:49;;;;;;;;;;;;;;;;;;5015658;28;19967;-31
2022/08/01 16:03:15;;;;;;;;;;;;;;;;;;5014709;28;19983;-33
2022/08/01 16:05:42;;;;;;;;;;;;;;;;;;5014946;28;20000;-32
2022/08/01 16:08:08;;;;;;;;;;;;;;;;;;5015280;28;19945;-31
2022/08/01 16:10:34;;;;;;;;;;;;;;;;;;5015574;28;19945;-32
2022/08/01 16:13:00;;;;;;;;;;;;;;;;;;5014958;28;19975;-32
2022/08/01 16:15:27;;;;;;;;;;;;;;;;;;5014846;28;19940;-32
2022/08/01 16:17:53;;;;;;;;;;;;;;;;;;5013866;28;20016;-33
2022/08/01 16:20:19;;;;;;;;;;;;;;;;;;5015034;28;20355;-31
2022/08/01 16:22:45;;;;;;;;;;;;;;;;;;5014733;28;19913;-32
2022/08/01 16:25:13;;;;;;;;;;;;;;;;;;5014756;28;20024;-32
2022/08/01 16:27:39;;;;;;;;;;;;;;;;;;5014739;28;20298;-32
2022/08/01 16:30:05;;;;;;;;;;;;;;;;;;5014899;28;19913;-31
2022/08/01 16:32:31;;;;;;;;;;;;;;;;;;5014289;28;19953;-31
2022/08/01 16:34:57;;;;;;;;;;;;;;;;;;5014563;28;19914;-32
2022/08/01 16:37:23;;;;;;;;;;;;;;;;;;5014912;28;19925;-31
2022/08/01 16:39:49;;;;;;;;;;;;;;;;;;5013605;28;20266;-32
2022/08/01 16:42:15;;;;;;;;;;;;;;;;;;5014298;28;19914;-33
2022/08/01 16:44:41;;;;;;;;;;;;;;;;;;5016831;28;19909;-32